Time;durP1;ratioP1;P1;durP2;ratioP2;P2;SDS_P1;SDS_P2;PMS_P1;PMS_P2;Temp;Humidity;BMP_temperature;BMP_pressure;BME280_temperature;BME280_humidity;BME280_pressure;Samples;Min_cycle;Max_cycle;Signal;HPM_P1;HPM_P2
2024/04/19 00:01:48;;;;;;;1.17;1.13;;;;;;;;;;6056852;27;20012;-73
2024/04/19 00:04:38;;;;;;;4.55;2.42;;;;;;;;;;6036205;27;20020;-73
2024/04/19 00:07:29;;;;;;;2.40;1.50;;;;;;;;;;6034453;27;20522;-72
2024/04/19 00:10:20;;;;;;;1.10;1.00;;;;;;;;;;6069435;27;20086;-73
2024/04/19 00:13:11;;;;;;;2.22;1.58;;;;;;;;;;6067391;27;20011;-73
2024/04/19 00:16:02;;;;;;;3.30;2.22;;;;;;;;;;6072628;27;20056;-73
2024/04/19 00:18:53;;;;;;;2.08;1.48;;;;;;;;;;6072334;27;20020;-73
2024/04/19 00:21:44;;;;;;;3.10;1.80;;;;;;;;;;6072543;27;20018;-72
2024/04/19 00:24:35;;;;;;;4.63;2.72;;;;;;;;;;6068388;27;20011;-73
2024/04/19 00:27:26;;;;;;;2.17;1.48;;;;;;;;;;6071770;27;20019;-72
2024/04/19 00:30:17;;;;;;;3.75;2.03;;;;;;;;;;6072350;27;20027;-72
2024/04/19 00:33:08;;;;;;;4.43;2.92;;;;;;;;;;6070034;27;20023;-72
2024/04/19 00:36:04;;;;;;;3.50;1.98;;;;;;;;;;6071963;27;20079;-72
2024/04/19 00:38:55;;;;;;;3.38;2.03;;;;;;;;;;6072100;27;20024;-73
2024/04/19 00:41:46;;;;;;;3.33;2.53;;;;;;;;;;6072240;27;20426;-72
2024/04/19 00:44:37;;;;;;;2.38;1.63;;;;;;;;;;6046170;27;20350;-72
2024/04/19 00:47:27;;;;;;;7.50;3.08;;;;;;;;;;6033766;27;20404;-72
2024/04/19 00:50:18;;;;;;;4.60;2.40;;;;;;;;;;6037669;27;20007;-72
2024/04/19 00:53:11;;;;;;;2.00;1.58;;;;;;;;;;6067358;27;20454;-72
2024/04/19 00:56:04;;;;;;;3.95;2.20;;;;;;;;;;6005492;27;20024;-72
2024/04/19 00:58:55;;;;;;;4.90;1.90;;;;;;;;;;6049599;27;20018;-73
2024/04/19 01:01:46;;;;;;;4.45;2.53;;;;;;;;;;6071723;27;20095;-72
2024/04/19 01:04:37;;;;;;;5.28;2.55;;;;;;;;;;6048432;27;20084;-73
2024/04/19 01:07:28;;;;;;;4.63;2.35;;;;;;;;;;6031822;27;20008;-72
2024/04/19 01:10:19;;;;;;;4.00;2.97;;;;;;;;;;6037758;27;20427;-72
2024/04/19 01:13:11;;;;;;;2.50;1.95;;;;;;;;;;6038985;27;20043;-72
2024/04/19 01:16:02;;;;;;;2.97;2.20;;;;;;;;;;6071520;27;20035;-72
2024/04/19 01:18:52;;;;;;;4.32;2.38;;;;;;;;;;6057146;27;20012;-72
2024/04/19 01:21:43;;;;;;;5.70;2.50;;;;;;;;;;6032737;27;20008;-72
2024/04/19 01:24:50;;;;;;;2.50;1.27;;;;;;;;;;6057918;27;20040;-72
2024/04/19 01:27:41;;;;;;;2.28;1.90;;;;;;;;;;6071441;27;20008;-72
2024/04/19 01:30:32;;;;;;;4.70;2.20;;;;;;;;;;6058232;27;20036;-72
2024/04/19 01:33:23;;;;;;;3.13;2.33;;;;;;;;;;6043188;27;20018;-72
2024/04/19 01:36:14;;;;;;;2.30;1.77;;;;;;;;;;6070833;27;20102;-72
2024/04/19 01:39:05;;;;;;;8.80;2.42;;;;;;;;;;6070832;27;20088;-72
2024/04/19 01:41:56;;;;;;;3.10;2.00;;;;;;;;;;6041235;27;20018;-72
2024/04/19 01:44:47;;;;;;;3.58;1.75;;;;;;;;;;6060671;27;20470;-72
2024/04/19 01:47:39;;;;;;;2.55;1.70;;;;;;;;;;6070563;27;20007;-72
2024/04/19 01:50:30;;;;;;;2.40;1.90;;;;;;;;;;6061559;27;20545;-72
2024/04/19 01:53:21;;;;;;;6.45;3.25;;;;;;;;;;6040833;27;20020;-72
2024/04/19 01:56:12;;;;;;;2.63;1.98;;;;;;;;;;6070660;27;20007;-72
2024/04/19 01:59:02;;;;;;;3.28;1.30;;;;;;;;;;6070756;27;20044;-72
2024/04/19 02:01:56;;;;;;;2.60;2.03;;;;;;;;;;6044725;27;20044;-72
2024/04/19 02:04:47;;;;;;;3.28;2.40;;;;;;;;;;6061835;27;20008;-72
2024/04/19 02:07:38;;;;;;;1.92;1.73;;;;;;;;;;6070648;27;20018;-73
2024/04/19 02:10:33;;;;;;;4.60;2.92;;;;;;;;;;6064380;27;20009;-72
2024/04/19 02:13:24;;;;;;;6.00;3.08;;;;;;;;;;6041073;27;20016;-72
2024/04/19 02:16:15;;;;;;;1.77;1.67;;;;;;;;;;6070508;27;20015;-72
2024/04/19 02:19:05;;;;;;;2.42;1.38;;;;;;;;;;6069770;27;20035;-72
2024/04/19 02:21:57;;;;;;;2.45;1.60;;;;;;;;;;6046340;27;20008;-72
2024/04/19 02:24:48;;;;;;;3.55;2.92;;;;;;;;;;6059745;27;20022;-72
2024/04/19 02:30:59;;;;;;;1.90;1.70;;;;;;;;;;6063098;27;20040;-71
2024/04/19 02:33:50;;;;;;;3.40;1.83;;;;;;;;;;6048341;27;20019;-71
2024/04/19 02:36:41;;;;;;;6.47;2.33;;;;;;;;;;6069991;27;20036;-71
2024/04/19 02:39:32;;;;;;;7.40;3.95;;;;;;;;;;6069742;27;20082;-72
2024/04/19 02:42:23;;;;;;;4.25;2.72;;;;;;;;;;6042870;27;20331;-71
2024/04/19 02:45:14;;;;;;;4.13;2.47;;;;;;;;;;6065263;27;20023;-71
2024/04/19 02:48:06;;;;;;;5.63;3.63;;;;;;;;;;6069339;27;20586;-71
2024/04/19 02:50:57;;;;;;;3.72;3.33;;;;;;;;;;6068325;27;20008;-71
2024/04/19 02:53:48;;;;;;;5.18;2.65;;;;;;;;;;6049415;27;20026;-72
2024/04/19 02:56:39;;;;;;;5.03;2.67;;;;;;;;;;6073586;27;20016;-71
2024/04/19 02:59:29;;;;;;;5.22;2.85;;;;;;;;;;6073437;27;20039;-71
2024/04/19 03:02:20;;;;;;;6.22;3.72;;;;;;;;;;6050060;27;20028;-71
2024/04/19 03:05:11;;;;;;;3.08;2.33;;;;;;;;;;6069514;27;20483;-71
2024/04/19 03:08:06;;;;;;;6.38;3.83;;;;;;;;;;6073187;27;20048;-71
2024/04/19 03:10:56;;;;;;;9.57;4.68;;;;;;;;;;6071204;27;20018;-72
2024/04/19 03:13:49;;;;;;;3.80;2.47;;;;;;;;;;5992639;27;20017;-72
2024/04/19 03:16:39;;;;;;;5.15;3.40;;;;;;;;;;5997295;27;20352;-71
2024/04/19 03:19:30;;;;;;;4.03;3.05;;;;;;;;;;6048505;27;20008;-71
2024/04/19 03:22:21;;;;;;;14.98;5.45;;;;;;;;;;6052974;27;20034;-71
2024/04/19 03:25:12;;;;;;;9.10;5.60;;;;;;;;;;6068077;27;20011;-71
2024/04/19 03:28:03;;;;;;;6.32;4.13;;;;;;;;;;6073141;27;20008;-71
2024/04/19 03:30:54;;;;;;;11.57;4.65;;;;;;;;;;6073690;27;20007;-72
2024/04/19 03:33:45;;;;;;;14.43;6.05;;;;;;;;;;6050161;27;20086;-72
2024/04/19 03:36:36;;;;;;;34.60;5.35;;;;;;;;;;6073264;27;20056;-72
2024/04/19 03:39:27;;;;;;;26.33;5.93;;;;;;;;;;6072816;27;20007;-71
2024/04/19 03:42:18;;;;;;;7.78;4.32;;;;;;;;;;6056499;27;20008;-72
2024/04/19 03:48:19;;;;;;;9.73;5.03;;;;;;;;;;6072281;27;20007;-72
2024/04/19 03:51:10;;;;;;;19.45;6.22;;;;;;;;;;6073107;27;20449;-72
2024/04/19 03:54:02;;;;;;;7.88;4.00;;;;;;;;;;5989102;27;20009;-71
2024/04/19 03:56:53;;;;;;;10.45;4.30;;;;;;;;;;5997178;27;20057;-72
2024/04/19 03:59:44;;;;;;;6.50;5.80;;;;;;;;;;6050194;27;20018;-72
2024/04/19 04:02:34;;;;;;;15.35;6.05;;;;;;;;;;6055407;27;20009;-72
2024/04/19 04:05:25;;;;;;;7.70;4.57;;;;;;;;;;6005813;27;20604;-72
2024/04/19 04:08:16;;;;;;;16.63;8.10;;;;;;;;;;6034030;27;20023;-72
2024/04/19 04:11:12;;;;;;;9.30;6.13;;;;;;;;;;6034364;27;20008;-71
2024/04/19 04:14:03;;;;;;;7.13;5.45;;;;;;;;;;6033557;27;20148;-71
2024/04/19 04:16:54;;;;;;;8.13;5.78;;;;;;;;;;6035023;27;20012;-71
2024/04/19 04:19:44;;;;;;;9.13;5.28;;;;;;;;;;6033732;27;20346;-72
2024/04/19 04:22:36;;;;;;;9.75;5.13;;;;;;;;;;6005176;27;20020;-71
2024/04/19 04:25:27;;;;;;;6.97;4.78;;;;;;;;;;6033936;27;20381;-71
2024/04/19 04:28:18;;;;;;;5.35;4.03;;;;;;;;;;6005555;27;20105;-71
2024/04/19 04:31:09;;;;;;;15.85;6.38;;;;;;;;;;6034318;27;20400;-71
2024/04/19 04:33:59;;;;;;;12.75;5.18;;;;;;;;;;6033303;27;20008;-71
2024/04/19 04:36:51;;;;;;;24.83;5.45;;;;;;;;;;6034036;27;20023;-71
2024/04/19 04:39:41;;;;;;;18.80;7.38;;;;;;;;;;6033867;27;20008;-71
2024/04/19 04:42:32;;;;;;;14.38;5.50;;;;;;;;;;6033324;27;20008;-71
2024/04/19 04:45:29;;;;;;;9.98;5.32;;;;;;;;;;6033567;27;20008;-71
2024/04/19 04:48:20;;;;;;;13.50;6.40;;;;;;;;;;6004694;27;20475;-71
2024/04/19 04:51:10;;;;;;;15.43;8.38;;;;;;;;;;6033708;27;20008;-71
2024/04/19 04:54:02;;;;;;;12.27;7.35;;;;;;;;;;6032589;27;20012;-70
2024/04/19 04:56:52;;;;;;;12.07;6.50;;;;;;;;;;6034142;27;20008;-71
2024/04/19 04:59:45;;;;;;;9.70;7.85;;;;;;;;;;6032379;27;20008;-71
2024/04/19 05:02:36;;;;;;;13.45;8.80;;;;;;;;;;6063401;27;20014;-71
2024/04/19 05:05:27;;;;;;;12.35;7.60;;;;;;;;;;6071474;27;20348;-71
2024/04/19 05:08:18;;;;;;;15.13;8.02;;;;;;;;;;6071510;27;20008;-71
2024/04/19 05:11:09;;;;;;;14.95;7.50;;;;;;;;;;6070768;27;20039;-71
2024/04/19 05:14:00;;;;;;;11.93;8.45;;;;;;;;;;6062354;27;20035;-71
2024/04/19 05:16:50;;;;;;;12.60;7.60;;;;;;;;;;6071536;27;20018;-71
2024/04/19 05:19:41;;;;;;;17.95;8.80;;;;;;;;;;6071129;27;20035;-71
2024/04/19 05:22:35;;;;;;;9.63;7.00;;;;;;;;;;6067281;27;20018;-71
2024/04/19 05:25:25;;;;;;;6.75;5.72;;;;;;;;;;6068927;27;20026;-71
2024/04/19 05:28:18;;;;;;;5.47;4.68;;;;;;;;;;6070906;27;20035;-71
2024/04/19 05:31:11;;;;;;;14.57;6.68;;;;;;;;;;6071688;27;20311;-71
2024/04/19 05:34:02;;;;;;;14.20;7.00;;;;;;;;;;6066956;27;20035;-71
2024/04/19 05:36:53;;;;;;;5.30;4.78;;;;;;;;;;6071774;27;20019;-71
2024/04/19 05:39:44;;;;;;;45.38;6.50;;;;;;;;;;6070980;27;20057;-71
2024/04/19 05:42:35;;;;;;;8.18;5.20;;;;;;;;;;6069126;27;20011;-71
2024/04/19 05:45:25;;;;;;;7.35;5.03;;;;;;;;;;6068456;27;20090;-71
2024/04/19 05:48:16;;;;;;;10.77;4.60;;;;;;;;;;6070326;27;20018;-71
2024/04/19 05:51:11;;;;;;;4.43;3.53;;;;;;;;;;6071339;27;20007;-71
2024/04/19 05:54:03;;;;;;;5.90;3.92;;;;;;;;;;6067858;27;20018;-71
2024/04/19 05:56:53;;;;;;;7.70;5.72;;;;;;;;;;6071297;27;20039;-71
2024/04/19 05:59:44;;;;;;;9.15;3.97;;;;;;;;;;6070481;27;20450;-71
2024/04/19 06:02:35;;;;;;;3.58;2.65;;;;;;;;;;6070814;27;20040;-71
2024/04/19 06:05:26;;;;;;;6.38;4.38;;;;;;;;;;6069614;27;20023;-71
2024/04/19 06:08:17;;;;;;;5.18;4.32;;;;;;;;;;6070381;27;20026;-71
2024/04/19 06:11:08;;;;;;;7.50;4.20;;;;;;;;;;6070710;27;20007;-71
2024/04/19 06:13:59;;;;;;;5.20;2.88;;;;;;;;;;6054610;27;20458;-71
2024/04/19 06:16:50;;;;;;;8.55;2.72;;;;;;;;;;6032643;27;20344;-72
2024/04/19 06:19:40;;;;;;;4.85;4.35;;;;;;;;;;6059976;27;20135;-71
2024/04/19 06:22:31;;;;;;;2.90;2.70;;;;;;;;;;6069912;27;20414;-71
2024/04/19 06:25:22;;;;;;;4.35;3.95;;;;;;;;;;6035823;27;20020;-71
2024/04/19 06:28:13;;;;;;;3.72;3.28;;;;;;;;;;6037821;27;20327;-72
2024/04/19 06:31:09;;;;;;;9.90;3.78;;;;;;;;;;6041417;27;20007;-72
2024/04/19 06:34:00;;;;;;;8.55;3.75;;;;;;;;;;6056482;27;20052;-72
2024/04/19 06:36:51;;;;;;;8.00;3.95;;;;;;;;;;6031722;27;20008;-72
2024/04/19 06:39:42;;;;;;;9.02;3.95;;;;;;;;;;6057285;27;20007;-72
2024/04/19 06:42:51;;;;;;;5.55;4.15;;;;;;;;;;6069174;27;20461;-72
2024/04/19 06:45:43;;;;;;;4.72;4.07;;;;;;;;;;6034681;27;20303;-72
2024/04/19 06:48:33;;;;;;;4.68;3.42;;;;;;;;;;6043899;27;20007;-72
2024/04/19 06:51:24;;;;;;;10.38;4.55;;;;;;;;;;6069553;27;20004;-72
2024/04/19 06:54:15;;;;;;;6.40;4.05;;;;;;;;;;6026666;27;20013;-73
2024/04/19 06:57:07;;;;;;;5.90;4.43;;;;;;;;;;6031212;27;20404;-72
2024/04/19 06:59:58;;;;;;;8.05;4.18;;;;;;;;;;6060887;27;20040;-72
2024/04/19 07:03:09;;;;;;;6.07;3.97;;;;;;;;;;6068289;27;20533;-72
2024/04/19 07:06:13;;;;;;;10.75;4.20;;;;;;;;;;6034008;27;20193;-72
2024/04/19 07:09:16;;;;;;;5.53;3.95;;;;;;;;;;6050519;27;20422;-72
2024/04/19 07:12:07;;;;;;;4.88;3.72;;;;;;;;;;6068814;27;20008;-72
2024/04/19 07:14:59;;;;;;;5.95;3.25;;;;;;;;;;6048891;27;20021;-72
2024/04/19 07:17:50;;;;;;;5.35;2.92;;;;;;;;;;6033372;27;20415;-72
2024/04/19 07:20:41;;;;;;;5.50;3.97;;;;;;;;;;6028701;27;20016;-72
2024/04/19 07:23:32;;;;;;;4.18;2.72;;;;;;;;;;6040529;27;20007;-72
2024/04/19 07:26:23;;;;;;;9.38;3.85;;;;;;;;;;6068600;27;20098;-73
2024/04/19 07:29:16;;;;;;;7.07;3.30;;;;;;;;;;6068370;27;20475;-72
2024/04/19 07:32:21;;;;;;;9.50;3.45;;;;;;;;;;6026869;27;20040;-72
2024/04/19 07:35:12;;;;;;;4.05;3.65;;;;;;;;;;6066420;27;20026;-72
2024/04/19 07:38:03;;;;;;;6.85;3.45;;;;;;;;;;6072124;27;20040;-72
2024/04/19 07:40:54;;;;;;;4.57;2.80;;;;;;;;;;6055628;27;20020;-72
2024/04/19 07:43:45;;;;;;;8.48;2.63;;;;;;;;;;6047308;27;20086;-72
2024/04/19 07:46:46;;;;;;;4.35;2.70;;;;;;;;;;6072722;27;20008;-72
2024/04/19 07:49:37;;;;;;;16.80;3.63;;;;;;;;;;6071816;27;20446;-72
2024/04/19 07:52:28;;;;;;;4.75;3.10;;;;;;;;;;6035356;27;20008;-72
2024/04/19 07:55:19;;;;;;;2.88;2.15;;;;;;;;;;6068136;27;20011;-72
2024/04/19 07:58:10;;;;;;;14.40;3.50;;;;;;;;;;6072040;27;20032;-72
2024/04/19 08:01:01;;;;;;;6.07;2.20;;;;;;;;;;6056592;27;20447;-73
2024/04/19 08:03:52;;;;;;;7.00;2.53;;;;;;;;;;6050987;27;20007;-73
2024/04/19 08:06:43;;;;;;;1.95;1.55;;;;;;;;;;6072353;27;20035;-72
2024/04/19 08:09:34;;;;;;;2.60;1.73;;;;;;;;;;6071920;27;20082;-72
2024/04/19 08:12:25;;;;;;;4.55;2.53;;;;;;;;;;6038849;27;20019;-72
2024/04/19 08:15:16;;;;;;;1.58;1.33;;;;;;;;;;6067770;27;20346;-72
2024/04/19 08:18:07;;;;;;;6.47;1.67;;;;;;;;;;6071497;27;21178;-73
2024/04/19 08:20:58;;;;;;;6.10;2.20;;;;;;;;;;6060495;27;20008;-72
2024/04/19 08:23:49;;;;;;;2.83;2.63;;;;;;;;;;6005049;27;20008;-72
2024/04/19 08:26:40;;;;;;;2.97;0.88;;;;;;;;;;6033530;27;20069;-71
2024/04/19 08:29:32;;;;;;;4.28;3.10;;;;;;;;;;6033604;27;20082;-73
2024/04/19 08:32:25;;;;;;;2.30;1.70;;;;;;;;;;6032559;27;20008;-71
2024/04/19 08:35:16;;;;;;;1.73;1.40;;;;;;;;;;6032844;27;20023;-72
2024/04/19 08:38:07;;;;;;;1.15;1.05;;;;;;;;;;6032954;27;20044;-72
2024/04/19 08:41:02;;;;;;;1.35;1.25;;;;;;;;;;6033251;27;20008;-72
2024/04/19 08:43:53;;;;;;;1.60;1.05;;;;;;;;;;6031323;27;20024;-71
2024/04/19 08:46:45;;;;;;;1.88;1.27;;;;;;;;;;6004098;27;20009;-71
2024/04/19 08:49:38;;;;;;;5.45;2.00;;;;;;;;;;6032327;27;20049;-72
2024/04/19 08:52:30;;;;;;;2.83;2.15;;;;;;;;;;6004371;27;20036;-72
2024/04/19 08:55:41;;;;;;;3.17;1.90;;;;;;;;;;5995511;27;20444;-72
2024/04/19 08:58:33;;;;;;;2.10;1.90;;;;;;;;;;6005365;27;20008;-72
2024/04/19 09:01:24;;;;;;;7.85;2.40;;;;;;;;;;6004901;27;20436;-73
2024/04/19 09:04:15;;;;;;;13.77;1.98;;;;;;;;;;6032066;27;20014;-72
2024/04/19 09:07:07;;;;;;;3.15;1.35;;;;;;;;;;6033142;27;20024;-71
2024/04/19 09:09:58;;;;;;;2.15;1.13;;;;;;;;;;6033372;27;20023;-72
2024/04/19 09:12:55;;;;;;;3.83;1.08;;;;;;;;;;6031130;27;20469;-72
2024/04/19 09:15:47;;;;;;;7.97;1.15;;;;;;;;;;6032654;27;20008;-72
2024/04/19 09:18:38;;;;;;;2.88;1.55;;;;;;;;;;6032104;27;20351;-72
2024/04/19 09:21:29;;;;;;;3.70;1.75;;;;;;;;;;6033132;27;20008;-71
2024/04/19 09:24:21;;;;;;;1.25;1.15;;;;;;;;;;6031933;27;20028;-71
2024/04/19 09:27:12;;;;;;;11.95;2.22;;;;;;;;;;6032860;27;20009;-72
2024/04/19 09:30:08;;;;;;;3.50;0.90;;;;;;;;;;6032416;27;20016;-71
2024/04/19 09:32:59;;;;;;;3.25;1.58;;;;;;;;;;6032600;27;20004;-72
2024/04/19 09:35:52;;;;;;;0.68;0.68;;;;;;;;;;6004118;27;20079;-72
2024/04/19 09:38:43;;;;;;;1.38;0.93;;;;;;;;;;6032661;27;20347;-71
2024/04/19 09:41:35;;;;;;;1.70;1.10;;;;;;;;;;6004727;27;20015;-72
2024/04/19 09:44:28;;;;;;;3.03;1.10;;;;;;;;;;6003681;27;20022;-72
2024/04/19 09:47:20;;;;;;;7.53;1.52;;;;;;;;;;6032504;27;20009;-72
2024/04/19 09:50:14;;;;;;;2.22;0.88;;;;;;;;;;6031610;27;20008;-72
2024/04/19 09:53:13;;;;;;;2.65;0.98;;;;;;;;;;6004096;27;20019;-71
2024/04/19 09:56:29;;;;;;;;;;;;;;;;;;6004769;27;20453;-72
2024/04/19 09:59:21;;;;;;;3.17;1.38;;;;;;;;;;6032068;27;19948;-73
2024/04/19 10:02:12;;;;;;;2.60;1.13;;;;;;;;;;6032554;27;20019;-72
2024/04/19 10:05:17;;;;;;;1.25;0.98;;;;;;;;;;6031218;27;20020;-71
2024/04/19 10:08:09;;;;;;;0.73;0.70;;;;;;;;;;6003700;27;20005;-72
2024/04/19 10:11:00;;;;;;;1.05;0.75;;;;;;;;;;6004846;27;20021;-72
2024/04/19 10:13:50;;;;;;;1.45;1.13;;;;;;;;;;6032212;27;20519;-73
2024/04/19 10:16:41;;;;;;;1.20;0.82;;;;;;;;;;6031745;27;20013;-72
2024/04/19 10:19:33;;;;;;;1.00;0.45;;;;;;;;;;6031649;27;20008;-72
2024/04/19 10:22:42;;;;;;;3.92;1.05;;;;;;;;;;6032003;27;20016;-72
2024/04/19 10:25:37;;;;;;;0.40;0.40;;;;;;;;;;6031540;27;20435;-72
2024/04/19 10:28:29;;;;;;;0.73;0.70;;;;;;;;;;6031793;27;20031;-72
2024/04/19 10:31:21;;;;;;;0.73;0.68;;;;;;;;;;6031997;27;20016;-72
2024/04/19 10:34:14;;;;;;;1.55;0.82;;;;;;;;;;6030817;27;20020;-72
2024/04/19 10:37:04;;;;;;;4.05;0.98;;;;;;;;;;6030953;27;20412;-72
2024/04/19 10:39:55;;;;;;;0.50;0.50;;;;;;;;;;6032037;27;20455;-73
2024/04/19 10:42:46;;;;;;;1.42;1.02;;;;;;;;;;6032006;27;20016;-72
2024/04/19 10:45:38;;;;;;;3.88;1.58;;;;;;;;;;6031215;27;20020;-72
2024/04/19 10:48:30;;;;;;;2.22;1.27;;;;;;;;;;6030849;27;20008;-72
2024/04/19 10:51:23;;;;;;;3.28;1.73;;;;;;;;;;6031725;27;20008;-73
2024/04/19 10:54:14;;;;;;;1.08;1.02;;;;;;;;;;6031355;27;20008;-72
2024/04/19 10:57:05;;;;;;;1.13;0.85;;;;;;;;;;6030987;27;20022;-72
2024/04/19 10:59:56;;;;;;;1.35;1.20;;;;;;;;;;6031612;27;20023;-72
2024/04/19 11:02:50;;;;;;;2.00;1.25;;;;;;;;;;6030724;27;20031;-73
2024/04/19 11:05:59;;;;;;;3.35;1.45;;;;;;;;;;6030975;27;20016;-73
2024/04/19 11:08:50;;;;;;;6.28;1.33;;;;;;;;;;5990059;27;20399;-72
2024/04/19 11:11:42;;;;;;;1.00;0.85;;;;;;;;;;6006681;27;20036;-73
2024/04/19 11:14:33;;;;;;;0.80;0.70;;;;;;;;;;6004089;27;20016;-72
2024/04/19 11:17:24;;;;;;;0.88;0.85;;;;;;;;;;6073496;27;20008;-72
2024/04/19 11:20:15;;;;;;;1.30;0.90;;;;;;;;;;6071000;27;20087;-72
2024/04/19 11:23:07;;;;;;;1.25;1.08;;;;;;;;;;6072956;27;20018;-72
2024/04/19 11:25:58;;;;;;;4.93;3.58;;;;;;;;;;6044896;27;20020;-72
2024/04/19 11:28:50;;;;;;;5.90;3.03;;;;;;;;;;6059151;27;20008;-72
2024/04/19 11:31:42;;;;;;;5.90;4.28;;;;;;;;;;6007018;27;20088;-72
2024/04/19 11:34:34;;;;;;;2.03;1.65;;;;;;;;;;6060626;27;20462;-73
2024/04/19 11:37:26;;;;;;;1.40;1.25;;;;;;;;;;6072784;27;20007;-72
2024/04/19 11:40:21;;;;;;;1.02;0.90;;;;;;;;;;6012570;27;20022;-72
2024/04/19 11:43:12;;;;;;;1.25;1.15;;;;;;;;;;6040102;27;20007;-72
2024/04/19 11:46:03;;;;;;;1.80;1.20;;;;;;;;;;6072863;27;20018;-72
2024/04/19 11:49:04;;;;;;;0.88;0.80;;;;;;;;;;6060456;27;20926;-72
2024/04/19 11:51:55;;;;;;;0.82;0.82;;;;;;;;;;6035005;27;20008;-72
2024/04/19 11:54:46;;;;;;;2.03;1.25;;;;;;;;;;6061614;27;20019;-71
2024/04/19 11:57:37;;;;;;;1.50;1.27;;;;;;;;;;6072906;27;20011;-70
2024/04/19 12:00:28;;;;;;;1.65;1.30;;;;;;;;;;6040909;27;20045;-69
2024/04/19 12:03:19;;;;;;;2.83;1.90;;;;;;;;;;6043405;27;20007;-69
2024/04/19 12:06:10;;;;;;;3.58;2.92;;;;;;;;;;6072798;27;20012;-69
2024/04/19 12:09:02;;;;;;;3.35;2.92;;;;;;;;;;6062217;27;20084;-69
2024/04/19 12:11:53;;;;;;;2.35;2.00;;;;;;;;;;6034882;27;20040;-69
2024/04/19 12:15:04;;;;;;;4.90;2.17;;;;;;;;;;6064256;27;20086;-69
2024/04/19 12:18:00;;;;;;;2.40;1.38;;;;;;;;;;6071216;27;20024;-70
2024/04/19 12:20:52;;;;;;;1.88;1.70;;;;;;;;;;6036903;27;20008;-70
2024/04/19 12:23:45;;;;;;;0.52;0.52;;;;;;;;;;6046083;27;20007;-70
2024/04/19 12:26:37;;;;;;;0.73;0.57;;;;;;;;;;6071733;27;20417;-72
2024/04/19 12:29:29;;;;;;;0.52;0.45;;;;;;;;;;6058013;27;20016;-72
2024/04/19 12:32:20;;;;;;;0.17;0.17;;;;;;;;;;6033244;27;20016;-73
2024/04/19 12:35:12;;;;;;;0.82;0.40;;;;;;;;;;6067159;27;20037;-72
2024/04/19 12:38:05;;;;;;;0.52;0.52;;;;;;;;;;6070747;27;20007;-72
2024/04/19 12:40:56;;;;;;;0.75;0.75;;;;;;;;;;6040036;27;20019;-73
2024/04/19 12:43:47;;;;;;;0.77;0.77;;;;;;;;;;6046258;27;20018;-74
2024/04/19 12:46:39;;;;;;;0.47;0.47;;;;;;;;;;6071169;27;20019;-73
2024/04/19 12:49:32;;;;;;;2.67;1.20;;;;;;;;;;6059423;27;20052;-73
2024/04/19 12:52:23;;;;;;;5.57;3.15;;;;;;;;;;6032929;27;20440;-73
2024/04/19 12:55:14;;;;;;;1.30;1.10;;;;;;;;;;6065960;27;20011;-73
2024/04/19 12:58:05;;;;;;;0.93;0.80;;;;;;;;;;6070696;27;20031;-73
2024/04/19 13:01:01;;;;;;;0.88;0.82;;;;;;;;;;6042903;27;20011;-74
2024/04/19 13:03:52;;;;;;;0.80;0.80;;;;;;;;;;6021737;27;20020;-73
2024/04/19 13:06:43;;;;;;;0.47;0.47;;;;;;;;;;6042288;27;20056;-73
2024/04/19 13:09:34;;;;;;;3.67;0.70;;;;;;;;;;6062480;27;20008;-73
2024/04/19 13:12:25;;;;;;;1.77;0.73;;;;;;;;;;6032755;27;20324;-73
2024/04/19 13:15:16;;;;;;;0.70;0.70;;;;;;;;;;6066142;27;20043;-73
2024/04/19 13:18:08;;;;;;;9.68;1.13;;;;;;;;;;6070016;27;20007;-73
2024/04/19 13:20:59;;;;;;;1.40;0.95;;;;;;;;;;6045204;27;20020;-72
2024/04/19 13:23:50;;;;;;;4.45;1.10;;;;;;;;;;6044199;27;20008;-74
2024/04/19 13:26:42;;;;;;;2.92;1.13;;;;;;;;;;6069672;27;20379;-73
2024/04/19 13:29:34;;;;;;;1.42;1.13;;;;;;;;;;6065746;27;20580;-73
2024/04/19 13:32:25;;;;;;;1.20;1.05;;;;;;;;;;6031831;27;20076;-73
2024/04/19 13:35:16;;;;;;;0.95;0.90;;;;;;;;;;6031531;27;20040;-72
2024/04/19 13:38:06;;;;;;;1.92;1.00;;;;;;;;;;6032127;27;20086;-72
2024/04/19 13:40:57;;;;;;;2.33;1.60;;;;;;;;;;6032527;27;20012;-73
2024/04/19 13:43:48;;;;;;;2.67;1.58;;;;;;;;;;6032338;27;20009;-73
2024/04/19 13:46:39;;;;;;;2.67;2.10;;;;;;;;;;6032672;27;20019;-72
2024/04/19 13:49:30;;;;;;;3.20;2.00;;;;;;;;;;6031074;27;20004;-72
2024/04/19 13:52:21;;;;;;;2.67;1.88;;;;;;;;;;6032464;27;20100;-72
2024/04/19 13:55:12;;;;;;;4.10;1.33;;;;;;;;;;6064663;27;20007;-72
2024/04/19 13:58:03;;;;;;;3.67;1.50;;;;;;;;;;6070403;27;20020;-72
2024/04/19 14:00:54;;;;;;;3.40;1.95;;;;;;;;;;6052316;27;20079;-73
2024/04/19 14:03:45;;;;;;;2.50;1.33;;;;;;;;;;6047323;27;20455;-72
2024/04/19 14:06:36;;;;;;;2.00;1.20;;;;;;;;;;6070355;27;20007;-73
2024/04/19 14:09:27;;;;;;;6.57;1.13;;;;;;;;;;6070234;27;20015;-72
2024/04/19 14:12:18;;;;;;;3.15;1.17;;;;;;;;;;6033825;27;20008;-72
2024/04/19 14:15:09;;;;;;;4.57;1.88;;;;;;;;;;6032057;27;20519;-72
2024/04/19 14:18:00;;;;;;;1.65;1.15;;;;;;;;;;6031656;27;20044;-72
2024/04/19 14:20:53;;;;;;;5.05;2.42;;;;;;;;;;6031980;27;20044;-72
2024/04/19 14:23:47;;;;;;;5.80;1.63;;;;;;;;;;6044338;27;20007;-72
2024/04/19 14:26:38;;;;;;;2.17;1.20;;;;;;;;;;6041426;27;20359;-72
2024/04/19 14:29:29;;;;;;;3.92;1.10;;;;;;;;;;6069573;27;20438;-72
2024/04/19 14:32:20;;;;;;;4.90;2.03;;;;;;;;;;6036174;27;20023;-72
2024/04/19 14:35:12;;;;;;;1.38;1.25;;;;;;;;;;6065616;27;20008;-73
2024/04/19 14:38:03;;;;;;;3.30;1.33;;;;;;;;;;6069360;27;20019;-72
2024/04/19 14:40:54;;;;;;;10.00;1.83;;;;;;;;;;6057713;27;20014;-73
2024/04/19 14:43:45;;;;;;;2.05;1.52;;;;;;;;;;6044118;27;20008;-73
2024/04/19 14:46:36;;;;;;;3.38;2.15;;;;;;;;;;6073029;27;20008;-72
2024/04/19 14:49:27;;;;;;;3.83;2.33;;;;;;;;;;6072419;27;20018;-72
2024/04/19 14:52:18;;;;;;;2.75;2.15;;;;;;;;;;6042907;27;20015;-72
2024/04/19 14:55:09;;;;;;;6.93;3.58;;;;;;;;;;6034683;27;20023;-72
2024/04/19 14:58:00;;;;;;;5.40;4.07;;;;;;;;;;6006779;27;20008;-73
2024/04/19 15:00:51;;;;;;;2.05;1.85;;;;;;;;;;6006401;27;20395;-73
2024/04/19 15:03:42;;;;;;;1.42;1.33;;;;;;;;;;6048980;27;20003;-72
2024/04/19 15:06:34;;;;;;;3.42;1.27;;;;;;;;;;6073251;27;20018;-72
2024/04/19 15:09:30;;;;;;;1.17;1.08;;;;;;;;;;6073124;27;20008;-72
2024/04/19 15:12:21;;;;;;;5.57;2.53;;;;;;;;;;6045436;27;20043;-72
2024/04/19 15:15:12;;;;;;;3.45;2.85;;;;;;;;;;6034543;27;20020;-72
2024/04/19 15:18:03;;;;;;;2.17;1.65;;;;;;;;;;6033539;27;20040;-72
2024/04/19 15:20:54;;;;;;;2.88;2.55;;;;;;;;;;6034767;27;20008;-71
2024/04/19 15:23:45;;;;;;;3.65;2.20;;;;;;;;;;6034655;27;20032;-72
2024/04/19 15:26:36;;;;;;;3.17;2.30;;;;;;;;;;6034519;27;20009;-73
2024/04/19 15:29:27;;;;;;;3.95;1.80;;;;;;;;;;6034177;27;20009;-72
2024/04/19 15:32:18;;;;;;;4.47;2.50;;;;;;;;;;6033716;27;20009;-72
2024/04/19 15:35:09;;;;;;;5.63;3.50;;;;;;;;;;6033435;27;20049;-71
2024/04/19 15:38:01;;;;;;;4.22;2.42;;;;;;;;;;6033881;27;20526;-72
2024/04/19 15:40:51;;;;;;;3.17;2.40;;;;;;;;;;6034332;27;20036;-73
2024/04/19 15:43:42;;;;;;;4.25;2.53;;;;;;;;;;6046196;27;20008;-72
2024/04/19 15:46:33;;;;;;;4.35;1.95;;;;;;;;;;6072482;27;20056;-72
2024/04/19 15:49:24;;;;;;;8.23;4.55;;;;;;;;;;6042883;27;20008;-72
2024/04/19 15:52:15;;;;;;;4.07;2.85;;;;;;;;;;6052334;27;20065;-72
2024/04/19 15:55:06;;;;;;;12.50;6.60;;;;;;;;;;6064559;27;20015;-72
2024/04/19 15:57:58;;;;;;;17.90;6.93;;;;;;;;;;6072243;27;20411;-72
2024/04/19 16:00:49;;;;;;;12.85;6.20;;;;;;;;;;6072271;27;20027;-72
2024/04/19 16:03:41;;;;;;;14.75;8.55;;;;;;;;;;6047783;27;20460;-72
2024/04/19 16:06:32;;;;;;;17.75;10.00;;;;;;;;;;6072091;27;20020;-72
2024/04/19 16:09:24;;;;;;;7.90;5.53;;;;;;;;;;6071701;27;20450;-72
2024/04/19 16:12:15;;;;;;;4.10;2.55;;;;;;;;;;6054990;27;20020;-72
2024/04/19 16:15:06;;;;;;;8.57;4.07;;;;;;;;;;6064417;27;20007;-72
2024/04/19 16:17:57;;;;;;;0.88;0.80;;;;;;;;;;6042520;27;20614;-72
2024/04/19 16:20:52;;;;;;;4.35;1.27;;;;;;;;;;6072476;27;20012;-71
2024/04/19 16:23:45;;;;;;;2.22;1.48;;;;;;;;;;6048565;27;20030;-71
2024/04/19 16:26:37;;;;;;;3.50;1.85;;;;;;;;;;6071830;27;20039;-70
2024/04/19 16:29:28;;;;;;;1.38;1.20;;;;;;;;;;6071116;27;20045;-70
2024/04/19 16:32:19;;;;;;;1.73;1.20;;;;;;;;;;6056847;27;20032;-70
2024/04/19 16:35:10;;;;;;;1.70;1.30;;;;;;;;;;6067439;27;20007;-71
2024/04/19 16:38:01;;;;;;;1.50;1.33;;;;;;;;;;6071354;27;20047;-72
2024/04/19 16:40:52;;;;;;;1.38;1.27;;;;;;;;;;6072257;27;20007;-72
2024/04/19 16:43:43;;;;;;;2.92;1.90;;;;;;;;;;6051335;27;20008;-72
2024/04/19 16:46:34;;;;;;;7.43;4.15;;;;;;;;;;6071705;27;20022;-72
2024/04/19 16:49:25;;;;;;;3.13;2.72;;;;;;;;;;6070620;27;20039;-72
2024/04/19 16:52:16;;;;;;;4.45;3.22;;;;;;;;;;6060453;27;20008;-72
2024/04/19 16:55:07;;;;;;;5.03;4.07;;;;;;;;;;6064101;27;20007;-72
2024/04/19 16:57:58;;;;;;;7.47;4.43;;;;;;;;;;6071290;27;20043;-72
2024/04/19 17:00:49;;;;;;;7.20;4.28;;;;;;;;;;6042634;27;20023;-72
2024/04/19 17:03:40;;;;;;;8.32;5.20;;;;;;;;;;6056199;27;20022;-71
2024/04/19 17:06:34;;;;;;;21.00;9.45;;;;;;;;;;6071027;27;20016;-72
2024/04/19 17:09:25;;;;;;;92.60;30.83;;;;;;;;;;6070021;27;20083;-71
2024/04/19 17:12:16;;;;;;;53.08;27.20;;;;;;;;;;6063231;27;20440;-72
2024/04/19 17:15:15;;;;;;;5.32;3.05;;;;;;;;;;6064679;27;20019;-72